Time;durP1;ratioP1;P1;durP2;ratioP2;P2;SDS_P1;SDS_P2;PMS_P1;PMS_P2;Temp;Humidity;BMP_temperature;BMP_pressure;BME280_temperature;BME280_humidity;BME280_pressure;Samples;Min_cycle;Max_cycle;Signal;HPM_P1;HPM_P2
2021/07/23 00:00:56;;;;;;;1.35;0.88;;;14.80;72.70;;;;;;5103267;28;20027;-54
2021/07/23 00:03:23;;;;;;;3.35;0.82;;;15.00;73.40;;;;;;5097398;28;20040;-54
2021/07/23 00:05:50;;;;;;;1.80;0.70;;;15.10;72.60;;;;;;5103525;28;20024;-56
2021/07/23 00:08:18;;;;;;;4.03;0.98;;;15.20;72.50;;;;;;5095208;28;20027;-59
2021/07/23 00:10:45;;;;;;;1.75;0.80;;;15.30;70.60;;;;;;5103583;28;20027;-59
2021/07/23 00:13:12;;;;;;;1.05;0.70;;;15.40;70.90;;;;;;5096354;28;20502;-58
2021/07/23 00:15:40;;;;;;;2.45;0.90;;;15.50;71.10;;;;;;5089313;28;20028;-58
2021/07/23 00:18:07;;;;;;;1.58;0.80;;;15.60;70.60;;;;;;5110810;28;20557;-59
2021/07/23 00:20:35;;;;;;;4.47;1.25;;;15.80;70.50;;;;;;5110622;28;20024;-59
2021/07/23 00:23:02;;;;;;;6.60;1.05;;;15.80;68.90;;;;;;5110140;28;20110;-63
2021/07/23 00:25:29;;;;;;;2.88;1.08;;;15.90;69.50;;;;;;5109901;28;20381;-56
2021/07/23 00:27:57;;;;;;;5.65;0.95;;;15.90;69.30;;;;;;5109322;28;20060;-55
2021/07/23 00:30:25;;;;;;;2.97;0.88;;;16.00;69.40;;;;;;5099218;28;20035;-56
2021/07/23 00:32:52;;;;;;;3.65;1.08;;;16.10;68.00;;;;;;5087000;28;20394;-61
2021/07/23 00:35:20;;;;;;;1.48;1.00;;;16.00;67.80;;;;;;5105221;28;20027;-59
2021/07/23 00:37:48;;;;;;;2.38;0.70;;;16.00;67.80;;;;;;5086490;28;20039;-62
2021/07/23 00:40:15;;;;;;;1.27;0.80;;;16.00;68.00;;;;;;5104673;28;20027;-56
2021/07/23 00:42:44;;;;;;;4.07;0.70;;;16.00;68.50;;;;;;5104418;28;20019;-60
2021/07/23 00:45:12;;;;;;;2.70;0.90;;;15.90;68.90;;;;;;5104916;28;20100;-56
2021/07/23 00:47:44;;;;;;;2.10;0.85;;;16.00;68.50;;;;;;5104999;28;20046;-60
2021/07/23 00:50:12;;;;;;;1.20;0.75;;;15.90;68.50;;;;;;5105422;28;20068;-56
2021/07/23 00:52:43;;;;;;;3.30;0.93;;;15.90;69.10;;;;;;5067313;28;20067;-58
2021/07/23 00:55:12;;;;;;;2.22;0.80;;;15.80;68.50;;;;;;5085150;28;20031;-58
2021/07/23 00:57:42;;;;;;;1.58;0.82;;;15.80;68.90;;;;;;5084940;28;20035;-57
2021/07/23 01:00:10;;;;;;;2.05;0.63;;;15.80;69.00;;;;;;5085167;28;20081;-58
2021/07/23 01:02:38;;;;;;;2.97;1.38;;;15.80;69.10;;;;;;5084978;28;20016;-59
2021/07/23 01:05:06;;;;;;;1.85;0.80;;;15.80;69.80;;;;;;5084909;28;20118;-55
2021/07/23 01:07:36;;;;;;;2.28;0.77;;;15.80;70.10;;;;;;5084787;28;20028;-57
2021/07/23 01:10:04;;;;;;;1.65;0.93;;;15.80;70.20;;;;;;5085260;28;20020;-61
2021/07/23 01:12:34;;;;;;;3.03;0.73;;;15.80;69.60;;;;;;5066012;28;20028;-59
2021/07/23 01:15:02;;;;;;;2.00;0.77;;;15.80;69.70;;;;;;5084054;28;20075;-55
2021/07/23 01:17:29;;;;;;;3.80;0.98;;;15.80;69.80;;;;;;5084883;28;20046;-56
2021/07/23 01:20:20;;;;;;;1.88;0.75;;;15.80;69.80;;;;;;5084316;28;20032;-60
2021/07/23 01:22:55;;;;;;;6.63;0.73;;;15.80;70.90;;;;;;5087819;28;20032;-61
2021/07/23 01:25:23;;;;;;;2.80;1.10;;;15.80;71.20;;;;;;5070578;28;20024;-63
2021/07/23 01:27:51;;;;;;;3.38;0.60;;;15.80;72.20;;;;;;5088246;28;20056;-60
2021/07/23 01:30:24;;;;;;;0.40;0.40;;;16.00;72.60;;;;;;5088781;28;20062;-60
2021/07/23 01:32:52;;;;;;;5.10;1.20;;;16.20;70.30;;;;;;5087676;28;20115;-55
2021/07/23 01:35:23;;;;;;;2.08;0.50;;;16.40;68.80;;;;;;5071372;28;20439;-59
2021/07/23 01:37:51;;;;;;;1.08;0.60;;;16.60;68.20;;;;;;5088314;28;20032;-58
2021/07/23 01:40:22;;;;;;;5.43;0.70;;;16.60;68.30;;;;;;5088880;28;20028;-63
2021/07/23 01:42:49;;;;;;;1.50;0.75;;;16.70;68.00;;;;;;5088248;28;20108;-60
2021/07/23 01:45:17;;;;;;;2.33;0.75;;;16.60;67.90;;;;;;5087956;28;20036;-60
2021/07/23 01:47:45;;;;;;;1.02;0.57;;;16.60;67.50;;;;;;5069872;28;20127;-57
2021/07/23 01:50:12;;;;;;;4.68;0.40;;;16.80;68.40;;;;;;5088771;28;20019;-57
2021/07/23 01:52:39;;;;;;;2.20;0.70;;;17.00;67.40;;;;;;5088150;28;20035;-56
2021/07/23 01:55:07;;;;;;;0.88;0.52;;;17.30;67.00;;;;;;5088155;28;20028;-54
2021/07/23 01:57:35;;;;;;;2.45;0.52;;;17.50;65.90;;;;;;5087621;28;20039;-55
2021/07/23 02:00:05;;;;;;;2.85;0.70;;;17.50;64.00;;;;;;5088131;28;20382;-56
2021/07/23 02:02:34;;;;;;;2.58;0.55;;;17.50;63.90;;;;;;5088419;28;20071;-55
2021/07/23 02:05:03;;;;;;;1.63;0.75;;;17.50;65.50;;;;;;5088071;28;20051;-58
2021/07/23 02:07:30;;;;;;;1.08;0.52;;;17.70;64.70;;;;;;5087538;28;20115;-55
2021/07/23 02:09:58;;;;;;;1.25;0.95;;;17.70;62.30;;;;;;5087839;28;20486;-59
2021/07/23 02:12:26;;;;;;;4.18;0.90;;;17.70;63.10;;;;;;5087438;28;20075;-58
2021/07/23 02:14:53;;;;;;;1.98;0.57;;;17.70;64.50;;;;;;5068896;28;20099;-56
2021/07/23 02:17:20;;;;;;;1.15;0.82;;;17.70;63.10;;;;;;5105391;28;20071;-63
2021/07/23 02:19:48;;;;;;;1.85;0.65;;;17.80;63.50;;;;;;5096777;28;20035;-59
2021/07/23 02:22:15;;;;;;;1.17;0.55;;;17.90;63.30;;;;;;5102401;28;20031;-57
2021/07/23 02:24:43;;;;;;;2.10;0.45;;;17.90;63.60;;;;;;5098558;28;20436;-61
2021/07/23 02:27:13;;;;;;;1.45;0.60;;;17.90;63.40;;;;;;5099363;28;20386;-59
2021/07/23 02:29:41;;;;;;;2.80;0.73;;;17.80;63.30;;;;;;5106387;28;20032;-56
2021/07/23 02:32:08;;;;;;;1.15;0.50;;;17.80;62.10;;;;;;5098126;28;20027;-57
2021/07/23 02:34:36;;;;;;;1.48;0.60;;;17.80;63.90;;;;;;5102561;28;20215;-58
2021/07/23 02:37:03;;;;;;;0.98;0.70;;;17.70;63.80;;;;;;5103440;28;20659;-61
2021/07/23 02:39:31;;;;;;;18.13;6.10;;;17.70;64.00;;;;;;5103297;28;20032;-56
2021/07/23 02:42:01;;;;;;;1.55;0.70;;;17.70;63.30;;;;;;5096430;28;20123;-61
2021/07/23 02:44:29;;;;;;;2.13;0.63;;;17.60;63.80;;;;;;5104216;28;20470;-53
2021/07/23 02:46:56;;;;;;;1.83;0.63;;;17.60;64.30;;;;;;5095974;28;20390;-61
2021/07/23 02:49:23;;;;;;;1.02;0.57;;;17.50;63.10;;;;;;5094526;28;20073;-54
2021/07/23 02:51:51;;;;;;;0.82;0.45;;;17.50;65.50;;;;;;5097719;28;20035;-51
2021/07/23 02:54:18;;;;;;;1.10;0.55;;;17.60;64.40;;;;;;5100744;28;20035;-60
2021/07/23 02:56:46;;;;;;;1.35;0.63;;;17.60;63.40;;;;;;5098029;28;20043;-59
2021/07/23 02:59:13;;;;;;;0.75;0.40;;;17.60;63.60;;;;;;5102510;28;20485;-58
2021/07/23 03:01:40;;;;;;;0.88;0.50;;;17.50;64.90;;;;;;5098078;28;20066;-53
2021/07/23 03:04:08;;;;;;;0.50;0.30;;;17.50;63.70;;;;;;5086013;28;20032;-55
2021/07/23 03:06:35;;;;;;;2.20;0.82;;;17.50;64.00;;;;;;5082357;28;20024;-57
2021/07/23 03:09:02;;;;;;;1.58;0.35;;;17.40;64.00;;;;;;5099659;28;20028;-60
2021/07/23 03:11:32;;;;;;;2.35;0.70;;;17.40;63.10;;;;;;5101292;28;20420;-60
2021/07/23 03:14:00;;;;;;;1.90;0.93;;;17.40;63.50;;;;;;5104373;28;20028;-62
2021/07/23 03:16:29;;;;;;;1.77;0.70;;;17.40;62.80;;;;;;5108532;28;20047;-62
2021/07/23 03:18:56;;;;;;;2.03;0.65;;;17.30;63.00;;;;;;5108492;28;20016;-57
2021/07/23 03:21:24;;;;;;;1.08;0.57;;;17.20;65.40;;;;;;5104334;28;20028;-57
2021/07/23 03:23:51;;;;;;;1.63;0.68;;;17.20;65.90;;;;;;5099712;28;20016;-58
2021/07/23 03:26:19;;;;;;;0.90;0.60;;;17.20;65.00;;;;;;5090774;28;20032;-58
2021/07/23 03:28:47;;;;;;;1.63;0.70;;;17.20;64.40;;;;;;5099078;28;20043;-63
2021/07/23 03:31:15;;;;;;;1.27;0.43;;;17.10;65.60;;;;;;5079237;28;20543;-60
2021/07/23 03:33:43;;;;;;;1.58;0.60;;;17.10;66.10;;;;;;5098328;28;20060;-60
2021/07/23 03:36:10;;;;;;;3.35;0.70;;;17.00;65.20;;;;;;5103586;28;20047;-55
2021/07/23 03:38:38;;;;;;;1.20;0.68;;;17.10;64.90;;;;;;5099122;28;20028;-62
2021/07/23 03:41:05;;;;;;;1.35;0.63;;;17.00;66.70;;;;;;5095331;28;20040;-58
2021/07/23 03:43:32;;;;;;;1.10;0.60;;;17.00;66.50;;;;;;5081961;28;20073;-63
2021/07/23 03:46:00;;;;;;;1.67;0.90;;;17.00;65.90;;;;;;5098732;28;20031;-60
2021/07/23 03:48:27;;;;;;;2.22;1.13;;;16.90;67.40;;;;;;5093297;28;20035;-51
2021/07/23 03:50:56;;;;;;;3.30;0.77;;;16.90;67.20;;;;;;5101352;28;20028;-54
2021/07/23 03:53:25;;;;;;;1.63;0.82;;;16.90;66.10;;;;;;5101185;28;20036;-60
2021/07/23 03:55:52;;;;;;;1.42;0.68;;;16.90;66.80;;;;;;5101782;28;20501;-53
2021/07/23 03:58:40;;;;;;;1.75;0.68;;;16.80;68.00;;;;;;5105218;28;20042;-59
2021/07/23 04:01:09;;;;;;;1.70;1.02;;;16.80;68.00;;;;;;5099380;28;20043;-56
2021/07/23 04:03:36;;;;;;;0.63;0.55;;;16.70;67.40;;;;;;5076231;28;20461;-57
2021/07/23 04:06:04;;;;;;;1.30;0.82;;;16.70;68.20;;;;;;5100944;28;20084;-61
2021/07/23 04:08:31;;;;;;;1.60;0.70;;;16.70;68.10;;;;;;5100552;28;20096;-60
2021/07/23 04:10:58;;;;;;;2.35;0.47;;;16.70;68.70;;;;;;5079078;28;20035;-57
2021/07/23 04:13:26;;;;;;;1.00;0.50;;;16.60;68.80;;;;;;5094828;28;20026;-58
2021/07/23 04:15:53;;;;;;;3.70;0.57;;;16.60;68.50;;;;;;5097324;28;20359;-58
2021/07/23 04:18:20;;;;;;;1.15;0.47;;;16.60;68.40;;;;;;5101126;28;20063;-60
2021/07/23 04:20:48;;;;;;;1.88;0.65;;;16.60;69.20;;;;;;5094072;28;20055;-63
2021/07/23 04:23:15;;;;;;;0.90;0.60;;;16.60;69.00;;;;;;5092413;28;20372;-58
2021/07/23 04:25:43;;;;;;;2.65;0.80;;;16.50;69.40;;;;;;5096296;28;20038;-59
2021/07/23 04:28:10;;;;;;;0.82;0.55;;;16.50;69.60;;;;;;5099802;28;20391;-58
2021/07/23 04:30:37;;;;;;;0.93;0.50;;;16.50;69.70;;;;;;5096313;28;20051;-58
2021/07/23 04:33:05;;;;;;;2.58;0.98;;;16.50;69.80;;;;;;5096544;28;20043;-62
2021/07/23 04:35:32;;;;;;;2.05;0.50;;;16.40;69.90;;;;;;5100785;28;20031;-58
2021/07/23 04:38:00;;;;;;;1.92;0.60;;;16.40;70.20;;;;;;5081179;28;20126;-60
2021/07/23 04:40:27;;;;;;;0.93;0.75;;;16.40;70.40;;;;;;5100343;28;20750;-59
2021/07/23 04:42:54;;;;;;;1.63;0.77;;;16.40;70.60;;;;;;5094360;28;20031;-58
2021/07/23 04:45:27;;;;;;;2.80;0.80;;;16.40;70.80;;;;;;5100129;28;20090;-60
2021/07/23 04:47:57;;;;;;;1.38;0.60;;;16.30;70.70;;;;;;5103681;28;20409;-59
2021/07/23 04:50:25;;;;;;;0.50;0.50;;;16.30;70.90;;;;;;5083040;28;20398;-59
2021/07/23 04:52:59;;;;;;;0.50;0.50;;;16.20;70.80;;;;;;5078642;28;20047;-60
2021/07/23 04:55:27;;;;;;;1.15;0.65;;;16.20;71.00;;;;;;5088575;28;20024;-60
2021/07/23 04:57:54;;;;;;;2.28;1.02;;;16.20;71.20;;;;;;5084670;28;20555;-59
2021/07/23 05:00:21;;;;;;;1.77;0.65;;;16.20;72.10;;;;;;5098500;28;20032;-58
2021/07/23 05:02:58;;;;;;;1.35;0.88;;;16.20;71.40;;;;;;5100697;28;20028;-62
2021/07/23 05:05:25;;;;;;;0.98;0.57;;;16.20;71.70;;;;;;5096757;28;20020;-56
2021/07/23 05:07:53;;;;;;;1.40;1.05;;;16.20;71.50;;;;;;5101214;28;20043;-59
2021/07/23 05:10:20;;;;;;;0.80;0.75;;;16.20;72.00;;;;;;5076167;28;20036;-58
2021/07/23 05:13:21;;;;;;;1.17;0.70;;;16.10;71.50;;;;;;5103824;28;20404;-56
2021/07/23 05:15:49;;;;;;;2.55;0.57;;;16.10;71.90;;;;;;5094485;28;20044;-56
2021/07/23 05:18:18;;;;;;;1.75;0.85;;;16.20;72.20;;;;;;5097959;28;20051;-59
2021/07/23 05:20:45;;;;;;;3.88;1.08;;;16.20;72.40;;;;;;5098881;28;20332;-55
2021/07/23 05:23:13;;;;;;;1.98;0.90;;;16.20;72.90;;;;;;5094864;28;20063;-60
2021/07/23 05:25:40;;;;;;;1.77;0.70;;;16.20;72.70;;;;;;5067754;28;20038;-58
2021/07/23 05:28:08;;;;;;;2.13;0.70;;;16.10;72.70;;;;;;5098018;28;20553;-60
2021/07/23 05:30:35;;;;;;;2.00;1.00;;;16.10;72.00;;;;;;5095811;28;20113;-62
2021/07/23 05:33:02;;;;;;;1.02;0.80;;;16.10;72.30;;;;;;5100677;28;20043;-58
2021/07/23 05:35:30;;;;;;;0.95;0.70;;;16.10;71.90;;;;;;5097262;28;20049;-59
2021/07/23 05:37:57;;;;;;;1.20;0.73;;;16.20;72.10;;;;;;5096606;28;20036;-59
2021/07/23 05:40:48;;;;;;;2.72;1.10;;;16.10;71.90;;;;;;5100327;28;20390;-60
2021/07/23 05:43:17;;;;;;;0.90;0.75;;;16.10;72.40;;;;;;5078667;28;20370;-59
2021/07/23 05:45:44;;;;;;;1.15;0.82;;;16.10;72.20;;;;;;5079590;28;20028;-53
2021/07/23 05:48:12;;;;;;;1.05;0.50;;;16.10;72.00;;;;;;5098079;28;20032;-58
2021/07/23 05:50:39;;;;;;;1.38;0.98;;;16.10;72.40;;;;;;5099655;28;20031;-62
2021/07/23 05:53:06;;;;;;;1.10;0.68;;;16.10;72.20;;;;;;5099320;28;20024;-60
2021/07/23 05:55:34;;;;;;;2.08;1.00;;;16.10;72.40;;;;;;5097989;28;20046;-59
2021/07/23 05:58:01;;;;;;;1.75;0.98;;;16.10;72.20;;;;;;5095146;28;20024;-62
2021/07/23 06:00:29;;;;;;;1.38;0.73;;;16.10;72.20;;;;;;5095820;28;20020;-62
2021/07/23 06:03:04;;;;;;;0.98;0.70;;;16.10;72.10;;;;;;5096975;28;20058;-58
2021/07/23 06:05:32;;;;;;;1.00;0.80;;;16.10;72.60;;;;;;5103865;28;20020;-59
2021/07/23 06:07:59;;;;;;;1.25;0.85;;;16.10;73.00;;;;;;5097738;28;20046;-61
2021/07/23 06:10:27;;;;;;;0.88;0.82;;;16.10;72.60;;;;;;5097709;28;20300;-58
2021/07/23 06:12:54;;;;;;;1.30;0.95;;;16.10;72.50;;;;;;5108838;28;20488;-60
2021/07/23 06:15:22;;;;;;;3.08;1.00;;;16.10;72.50;;;;;;5108670;28;20103;-57
2021/07/23 06:17:49;;;;;;;1.80;1.25;;;16.10;72.70;;;;;;5101092;28;20069;-61
2021/07/23 06:20:16;;;;;;;1.45;1.02;;;16.10;73.30;;;;;;5097783;28;20039;-62
2021/07/23 06:22:44;;;;;;;0.93;0.80;;;16.00;72.90;;;;;;5102579;28;20047;-64
2021/07/23 06:25:12;;;;;;;1.52;1.00;;;16.00;73.00;;;;;;5087856;28;20130;-62
2021/07/23 06:27:39;;;;;;;0.85;0.73;;;16.00;73.00;;;;;;5083085;28;20056;-49
2021/07/23 06:30:07;;;;;;;1.25;0.80;;;16.10;72.80;;;;;;5106553;28;20128;-54
2021/07/23 06:32:36;;;;;;;1.45;0.90;;;16.00;72.60;;;;;;5095670;28;20055;-59
2021/07/23 06:35:06;;;;;;;2.10;0.60;;;16.00;72.90;;;;;;5101246;28;20023;-60
2021/07/23 06:37:34;;;;;;;1.30;0.90;;;16.00;72.80;;;;;;5083268;28;20040;-56
2021/07/23 06:40:02;;;;;;;1.00;0.90;;;16.00;72.90;;;;;;5076815;28;20462;-56
2021/07/23 06:42:29;;;;;;;1.67;0.90;;;16.00;73.00;;;;;;5100584;28;20080;-59
2021/07/23 06:44:57;;;;;;;1.45;0.77;;;15.90;73.00;;;;;;5099083;28;20039;-58
2021/07/23 06:47:24;;;;;;;1.05;0.80;;;16.00;73.20;;;;;;5100372;28;20229;-58
2021/07/23 06:49:52;;;;;;;0.88;0.70;;;15.90;73.10;;;;;;5102376;28;20053;-54
2021/07/23 06:52:19;;;;;;;2.17;1.33;;;15.90;73.50;;;;;;5101064;28;20034;-60
2021/07/23 06:54:50;;;;;;;0.90;0.80;;;15.90;73.80;;;;;;5100284;28;20470;-58
2021/07/23 06:57:19;;;;;;;1.25;1.00;;;15.90;74.30;;;;;;5100081;28;20044;-59
2021/07/23 06:59:46;;;;;;;3.22;0.82;;;15.80;73.70;;;;;;5101508;28;20077;-58
2021/07/23 07:02:14;;;;;;;1.30;0.95;;;15.80;73.60;;;;;;5098503;28;20023;-59
2021/07/23 07:04:44;;;;;;;3.03;1.13;;;15.80;74.00;;;;;;5098450;28;20027;-60
2021/07/23 07:07:11;;;;;;;2.28;1.20;;;15.80;74.10;;;;;;5091619;28;20036;-59
2021/07/23 07:09:40;;;;;;;2.05;1.08;;;15.80;74.50;;;;;;5090091;28;20497;-55
2021/07/23 07:12:07;;;;;;;2.72;1.60;;;15.80;74.10;;;;;;5090178;28;20095;-54
2021/07/23 07:14:34;;;;;;;3.65;1.38;;;15.70;74.30;;;;;;5106611;28;20023;-55
2021/07/23 07:17:04;;;;;;;2.63;1.60;;;15.70;74.60;;;;;;5106844;28;20501;-51
2021/07/23 07:19:32;;;;;;;5.80;1.50;;;15.70;74.20;;;;;;5107175;28;20039;-53
2021/07/23 07:22:00;;;;;;;2.47;1.58;;;15.70;74.30;;;;;;5107287;28;20111;-57
2021/07/23 07:24:27;;;;;;;3.20;1.77;;;15.70;74.10;;;;;;5087628;28;20031;-54
2021/07/23 07:26:54;;;;;;;8.30;2.20;;;15.70;74.40;;;;;;5105526;28;20036;-58
2021/07/23 07:29:41;;;;;;;4.72;1.80;;;15.70;74.60;;;;;;5106807;28;20035;-58
2021/07/23 07:32:10;;;;;;;6.43;3.05;;;15.60;74.60;;;;;;5086626;28;20547;-61
2021/07/23 07:34:40;;;;;;;4.75;2.13;;;15.70;74.30;;;;;;5105887;28;20031;-57
2021/07/23 07:37:08;;;;;;;4.65;2.33;;;15.70;74.80;;;;;;5106940;28;20505;-55
2021/07/23 07:39:38;;;;;;;6.80;2.42;;;15.70;74.40;;;;;;5106667;28;20026;-58
2021/07/23 07:42:11;;;;;;;5.75;2.30;;;15.60;74.30;;;;;;5105897;28;20474;-54
2021/07/23 07:44:39;;;;;;;4.18;2.20;;;15.70;74.60;;;;;;5087449;28;20024;-62
2021/07/23 07:47:07;;;;;;;4.85;2.58;;;15.70;74.60;;;;;;5106393;28;20035;-60
2021/07/23 07:49:34;;;;;;;4.88;2.38;;;15.60;74.50;;;;;;5106311;28;20050;-58
2021/07/23 07:52:02;;;;;;;7.15;2.72;;;15.60;74.30;;;;;;5105989;28;20020;-62
2021/07/23 07:54:29;;;;;;;4.90;2.45;;;15.60;74.30;;;;;;5105685;28;20039;-62
2021/07/23 07:57:05;;;;;;;2.95;1.98;;;15.60;74.30;;;;;;5105631;28;20047;-62
2021/07/23 07:59:32;;;;;;;7.00;2.53;;;15.60;74.60;;;;;;5106361;28;20024;-62
2021/07/23 08:02:00;;;;;;;4.93;2.80;;;15.60;74.30;;;;;;5105487;28;20023;-63
2021/07/23 08:04:28;;;;;;;5.30;3.00;;;15.60;74.30;;;;;;5105064;28;20030;-59
2021/07/23 08:06:56;;;;;;;5.68;2.80;;;15.60;74.50;;;;;;5105754;28;20047;-61
2021/07/23 08:09:23;;;;;;;7.38;3.47;;;15.70;74.40;;;;;;5105871;28;20030;-58
2021/07/23 08:11:51;;;;;;;6.13;3.10;;;15.60;74.60;;;;;;5086870;28;20126;-56
2021/07/23 08:14:21;;;;;;;5.57;2.95;;;15.60;74.70;;;;;;5105537;28;20024;-56
2021/07/23 08:16:48;;;;;;;6.10;2.95;;;15.60;74.60;;;;;;5105402;28;20071;-57
2021/07/23 08:19:16;;;;;;;5.97;3.00;;;15.60;74.70;;;;;;5104627;28;20036;-60
2021/07/23 08:21:43;;;;;;;6.93;3.22;;;15.60;74.80;;;;;;5104958;28;20023;-62
2021/07/23 08:24:11;;;;;;;6.43;3.40;;;15.60;74.90;;;;;;5110386;28;20474;-60
2021/07/23 08:26:38;;;;;;;10.07;4.00;;;15.60;74.90;;;;;;5109707;28;20081;-61
2021/07/23 08:29:06;;;;;;;10.48;3.50;;;15.60;75.00;;;;;;5110124;28;20039;-63
2021/07/23 08:31:33;;;;;;;6.95;3.33;;;15.60;75.30;;;;;;5091818;28;20040;-61
2021/07/23 08:34:00;;;;;;;7.57;3.50;;;15.60;75.00;;;;;;5110206;28;20020;-57
2021/07/23 08:36:28;;;;;;;6.00;2.83;;;15.60;75.30;;;;;;5109702;28;20547;-61
2021/07/23 08:38:55;;;;;;;6.68;3.13;;;15.60;75.40;;;;;;5110002;28;20031;-63
2021/07/23 08:41:22;;;;;;;6.63;3.47;;;15.50;75.40;;;;;;5109435;28;20027;-59
2021/07/23 08:43:50;;;;;;;7.78;3.45;;;15.60;75.50;;;;;;5110208;28;20040;-59
2021/07/23 08:46:17;;;;;;;6.00;3.40;;;15.60;75.50;;;;;;5109852;28;20707;-58
2021/07/23 08:48:45;;;;;;;5.72;3.03;;;15.50;75.40;;;;;;5093305;28;20031;-54
2021/07/23 08:51:17;;;;;;;6.65;3.53;;;15.50;75.70;;;;;;5099915;28;20118;-56
2021/07/23 08:53:45;;;;;;;5.38;3.65;;;15.60;75.70;;;;;;5099535;28;20126;-60
2021/07/23 08:56:13;;;;;;;6.88;3.10;;;15.60;75.70;;;;;;5081882;28;20040;-59
2021/07/23 08:58:40;;;;;;;7.65;3.40;;;15.60;75.20;;;;;;5098342;28;20036;-57
2021/07/23 09:01:08;;;;;;;7.63;3.58;;;15.60;75.00;;;;;;5100796;28;20031;-59
2021/07/23 09:03:35;;;;;;;7.32;3.85;;;15.70;75.20;;;;;;5096299;28;20028;-56
2021/07/23 09:06:22;;;;;;;6.40;3.53;;;15.70;75.50;;;;;;5101668;28;20030;-57
2021/07/23 09:08:53;;;;;;;5.80;3.05;;;15.60;75.10;;;;;;5099413;28;20028;-62
2021/07/23 09:11:28;;;;;;;9.00;4.22;;;15.70;75.10;;;;;;5100976;28;20106;-52
2021/07/23 09:14:16;;;;;;;5.75;3.25;;;15.70;75.20;;;;;;5100366;28;20038;-56
2021/07/23 09:16:43;;;;;;;5.88;3.30;;;15.70;75.30;;;;;;5096603;28;20043;-58
2021/07/23 09:19:11;;;;;;;8.68;3.35;;;15.70;75.20;;;;;;5100445;28;20031;-53
2021/07/23 09:21:40;;;;;;;6.40;3.70;;;15.70;75.00;;;;;;5099174;28;20035;-56
2021/07/23 09:24:10;;;;;;;7.57;3.65;;;15.70;74.90;;;;;;5099461;28;20027;-50
2021/07/23 09:26:46;;;;;;;7.00;3.58;;;15.80;74.90;;;;;;5103393;28;20031;-54
2021/07/23 09:29:14;;;;;;;6.07;3.38;;;15.80;75.00;;;;;;5096777;28;20139;-56
2021/07/23 09:32:01;;;;;;;5.00;3.03;;;15.80;74.90;;;;;;5099517;28;20043;-59
2021/07/23 09:34:31;;;;;;;8.57;3.58;;;15.80;74.90;;;;;;5101421;28;20034;-60
2021/07/23 09:37:12;;;;;;;6.13;3.30;;;15.80;74.80;;;;;;5105505;28;20066;-61
2021/07/23 09:39:39;;;;;;;6.55;3.25;;;15.80;74.80;;;;;;5101351;28;20130;-57
2021/07/23 09:42:07;;;;;;;5.90;3.38;;;15.80;74.90;;;;;;5105787;28;20159;-62
2021/07/23 09:44:34;;;;;;;5.45;3.50;;;15.80;74.90;;;;;;5092156;28;20023;-61
2021/07/23 09:47:02;;;;;;;6.13;3.25;;;15.80;74.80;;;;;;5105891;28;20569;-61
2021/07/23 09:49:30;;;;;;;8.55;3.30;;;15.80;74.80;;;;;;5106901;28;20028;-58
2021/07/23 09:52:05;;;;;;;5.53;3.30;;;15.80;74.80;;;;;;5106792;28;20060;-57
2021/07/23 09:54:34;;;;;;;5.72;3.33;;;15.80;74.80;;;;;;5087297;28;20060;-53
2021/07/23 09:57:03;;;;;;;6.82;3.25;;;15.80;74.80;;;;;;5108144;28;20032;-56
2021/07/23 09:59:58;;;;;;;6.75;3.20;;;15.80;74.80;;;;;;5104165;28;20080;-59
2021/07/23 10:02:27;;;;;;;5.88;3.40;;;15.80;74.90;;;;;;5096018;28;20065;-58
2021/07/23 10:05:05;;;;;;;6.80;3.63;;;15.80;75.10;;;;;;5108009;28;20028;-58
2021/07/23 10:07:58;;;;;;;6.13;3.10;;;15.80;75.00;;;;;;5103290;28;20109;-59
2021/07/23 10:10:26;;;;;;;7.25;3.45;;;15.80;75.00;;;;;;5099565;28;20108;-60
2021/07/23 10:12:55;;;;;;;6.70;3.08;;;15.80;75.00;;;;;;5106300;28;20023;-55
2021/07/23 10:15:23;;;;;;;5.35;2.80;;;15.80;75.10;;;;;;5101318;28;20046;-56
2021/07/23 10:17:51;;;;;;;5.43;3.75;;;15.80;75.10;;;;;;5105120;28;20035;-60
2021/07/23 10:20:22;;;;;;;6.32;3.25;;;15.80;75.20;;;;;;5100531;28;20030;-59
2021/07/23 10:22:52;;;;;;;9.05;3.17;;;15.80;75.30;;;;;;5099772;28;20042;-57
2021/07/23 10:25:23;;;;;;;6.68;3.58;;;15.80;75.30;;;;;;5102312;28;20505;-55
2021/07/23 10:27:52;;;;;;;8.07;2.60;;;15.80;75.40;;;;;;5101047;28;20059;-54
2021/07/23 10:30:33;;;;;;;4.72;3.15;;;15.70;75.30;;;;;;5084142;28;20027;-56
2021/07/23 10:33:01;;;;;;;6.43;2.70;;;15.70;75.30;;;;;;5079778;28;20123;-52
2021/07/23 10:35:33;;;;;;;4.60;2.83;;;15.70;75.30;;;;;;5106471;28;20078;-57
2021/07/23 10:38:01;;;;;;;3.92;2.40;;;15.70;75.30;;;;;;5102860;28;20040;-56
2021/07/23 10:40:34;;;;;;;5.55;3.17;;;15.70;75.30;;;;;;5103748;28;20028;-58
2021/07/23 10:43:02;;;;;;;4.53;2.83;;;15.70;75.40;;;;;;5101736;28;20031;-59
2021/07/23 10:45:43;;;;;;;5.97;2.95;;;15.70;75.40;;;;;;5102363;28;20077;-54
2021/07/23 10:48:32;;;;;;;6.22;3.25;;;15.70;75.50;;;;;;5101980;28;20130;-61
2021/07/23 10:51:00;;;;;;;5.07;2.90;;;15.70;75.50;;;;;;5100557;28;20031;-59
2021/07/23 10:53:34;;;;;;;4.80;3.15;;;15.70;75.50;;;;;;5105626;28;20055;-58
2021/07/23 10:56:02;;;;;;;5.63;3.22;;;15.60;75.50;;;;;;5103282;28;20035;-55
2021/07/23 10:58:31;;;;;;;4.90;3.42;;;15.60;75.50;;;;;;5099274;28;20649;-55
2021/07/23 11:00:59;;;;;;;6.28;3.25;;;15.60;75.50;;;;;;5100967;28;20416;-57
2021/07/23 11:03:41;;;;;;;4.57;2.97;;;15.60;75.50;;;;;;5102123;28;20027;-57
2021/07/23 11:06:21;;;;;;;5.88;2.90;;;15.60;75.50;;;;;;5097972;28;20128;-57
2021/07/23 11:08:52;;;;;;;4.60;2.90;;;15.60;75.50;;;;;;5096384;28;20035;-57
2021/07/23 11:11:27;;;;;;;5.18;3.10;;;15.60;75.60;;;;;;5103170;28;20394;-56
2021/07/23 11:13:54;;;;;;;4.20;2.17;;;15.70;75.60;;;;;;5098937;28;20028;-54
2021/07/23 11:16:27;;;;;;;3.33;2.78;;;15.70;75.70;;;;;;5099702;28;20035;-56
2021/07/23 11:18:56;;;;;;;6.60;3.40;;;15.70;75.70;;;;;;5101462;28;20546;-54
2021/07/23 11:21:25;;;;;;;4.10;2.67;;;15.60;75.70;;;;;;5100457;28;20543;-56
2021/07/23 11:23:52;;;;;;;5.45;2.72;;;15.60;75.50;;;;;;5105090;28;20051;-56
2021/07/23 11:26:26;;;;;;;4.55;2.83;;;15.60;75.70;;;;;;5103168;28;20478;-55
2021/07/23 11:28:57;;;;;;;4.72;3.33;;;15.60;75.60;;;;;;5098774;28;20588;-55
2021/07/23 11:31:40;;;;;;;5.38;2.90;;;15.60;75.70;;;;;;5103923;28;20038;-54
2021/07/23 11:34:23;;;;;;;3.65;2.30;;;15.60;75.80;;;;;;5104811;28;20100;-60
2021/07/23 11:36:57;;;;;;;6.97;3.30;;;15.60;75.80;;;;;;5105705;28;20046;-59
2021/07/23 11:39:24;;;;;;;4.20;2.63;;;15.60;76.60;;;;;;5102289;28;20036;-53
2021/07/23 11:42:05;;;;;;;5.07;2.88;;;15.60;75.90;;;;;;5106758;28;20031;-53
2021/07/23 11:44:32;;;;;;;4.32;2.80;;;15.60;76.00;;;;;;5099180;28;20035;-59
2021/07/23 11:47:01;;;;;;;4.47;2.75;;;15.60;75.90;;;;;;5106157;28;20077;-59
2021/07/23 11:49:32;;;;;;;4.35;2.50;;;15.60;76.00;;;;;;5099594;28;20055;-53
2021/07/23 11:52:00;;;;;;;4.18;2.60;;;15.60;76.00;;;;;;5096151;28;20035;-60
2021/07/23 11:54:28;;;;;;;4.97;2.60;;;15.60;75.90;;;;;;5104344;28;20114;-59
2021/07/23 11:57:02;;;;;;;4.32;2.50;;;15.60;75.90;;;;;;5103403;28;20569;-57
2021/07/23 11:59:37;;;;;;;5.63;2.88;;;15.60;76.10;;;;;;5093582;28;20120;-55
2021/07/23 12:02:10;;;;;;;4.68;2.47;;;15.60;75.90;;;;;;5100190;28;20074;-65
2021/07/23 12:04:41;;;;;;;3.67;2.28;;;15.60;75.90;;;;;;5099670;28;20094;-64
2021/07/23 12:07:09;;;;;;;4.05;2.40;;;15.60;76.10;;;;;;5099345;28;20034;-59
2021/07/23 12:09:37;;;;;;;5.32;2.60;;;15.60;76.10;;;;;;5099334;28;20032;-53
2021/07/23 12:12:06;;;;;;;4.30;2.58;;;15.60;76.10;;;;;;5100533;28;20150;-54
2021/07/23 12:14:34;;;;;;;3.67;2.20;;;15.60;76.10;;;;;;5097181;28;20032;-57
2021/07/23 12:17:01;;;;;;;5.93;2.05;;;15.60;76.10;;;;;;5097574;28;20066;-56
2021/07/23 12:19:29;;;;;;;4.78;2.55;;;15.60;76.00;;;;;;5099689;28;20524;-53
2021/07/23 12:22:15;;;;;;;3.97;2.33;;;15.60;76.10;;;;;;5102593;28;20027;-53
2021/07/23 12:24:42;;;;;;;3.78;2.17;;;15.60;76.20;;;;;;5099249;28;20032;-57
2021/07/23 12:27:17;;;;;;;3.25;1.98;;;15.60;76.10;;;;;;5099837;28;20028;-59
2021/07/23 12:29:45;;;;;;;4.45;2.65;;;15.60;76.00;;;;;;5100178;28;20020;-59
2021/07/23 12:32:22;;;;;;;4.32;1.98;;;15.60;76.10;;;;;;5098211;28;20035;-58
2021/07/23 12:34:57;;;;;;;3.38;1.73;;;15.60;76.20;;;;;;5100401;28;20027;-59
2021/07/23 12:37:25;;;;;;;3.35;2.13;;;15.60;76.10;;;;;;5095452;28;20054;-59
2021/07/23 12:39:56;;;;;;;3.53;2.10;;;15.60;76.20;;;;;;5078229;28;20024;-59
2021/07/23 12:42:25;;;;;;;2.60;1.83;;;15.60;76.30;;;;;;5101229;28;20031;-62
2021/07/23 12:44:53;;;;;;;3.20;2.05;;;15.60;76.30;;;;;;5098724;28;20027;-57
2021/07/23 12:47:25;;;;;;;4.25;1.95;;;15.50;76.10;;;;;;5104209;28;20032;-55
2021/07/23 12:49:55;;;;;;;2.63;2.00;;;15.60;76.30;;;;;;5100022;28;20706;-56
2021/07/23 12:52:26;;;;;;;3.53;1.92;;;15.60;76.20;;;;;;5101106;28;20054;-58
2021/07/23 12:55:04;;;;;;;3.70;1.77;;;15.50;76.30;;;;;;5102634;28;20067;-60
2021/07/23 12:57:33;;;;;;;4.13;2.03;;;15.50;76.40;;;;;;5096706;28;20430;-57